sensor_id;sensor_type;location;lat;lon;timestamp;pressure;altitude;pressure_sealevel;temperature;humidity
32638;BME280;19045;52.268;10.506;2023-05-01T00:00:56;101096.28;;;8.34;65.34
32638;BME280;19045;52.268;10.506;2023-05-01T00:03:22;101085.31;;;8.36;64.87
32638;BME280;19045;52.268;10.506;2023-05-01T00:05:49;101081.03;;;8.35;64.35
32638;BME280;19045;52.268;10.506;2023-05-01T00:08:16;101071.34;;;8.34;64.46
32638;BME280;19045;52.268;10.506;2023-05-01T00:10:45;101076.72;;;8.34;64.02
32638;BME280;19045;52.268;10.506;2023-05-01T00:13:12;101075.88;;;8.33;64.22
32638;BME280;19045;52.268;10.506;2023-05-01T00:15:40;101079.19;;;8.35;63.68
32638;BME280;19045;52.268;10.506;2023-05-01T00:18:07;101077.59;;;8.27;63.51
32638;BME280;19045;52.268;10.506;2023-05-01T00:20:34;101069.13;;;8.30;63.41
32638;BME280;19045;52.268;10.506;2023-05-01T00:23:01;101072.22;;;8.27;63.27
32638;BME280;19045;52.268;10.506;2023-05-01T00:25:27;101070.41;;;8.28;62.87
32638;BME280;19045;52.268;10.506;2023-05-01T00:27:56;101064.50;;;8.19;62.89
32638;BME280;19045;52.268;10.506;2023-05-01T00:30:23;101064.13;;;8.16;62.39
32638;BME280;19045;52.268;10.506;2023-05-01T00:32:52;101066.59;;;8.17;62.24
32638;BME280;19045;52.268;10.506;2023-05-01T00:35:19;101058.13;;;8.20;61.68
32638;BME280;19045;52.268;10.506;2023-05-01T00:37:45;101062.06;;;8.18;61.78
32638;BME280;19045;52.268;10.506;2023-05-01T00:40:12;101056.56;;;8.13;61.95
32638;BME280;19045;52.268;10.506;2023-05-01T00:42:39;101049.59;;;8.12;61.44
32638;BME280;19045;52.268;10.506;2023-05-01T00:45:08;101043.09;;;8.19;61.58
32638;BME280;19045;52.268;10.506;2023-05-01T00:47:37;101044.28;;;8.23;60.98
32638;BME280;19045;52.268;10.506;2023-05-01T00:50:05;101038.56;;;8.20;61.01
32638;BME280;19045;52.268;10.506;2023-05-01T00:52:33;101034.03;;;8.20;61.46
32638;BME280;19045;52.268;10.506;2023-05-01T00:55:00;101027.94;;;8.13;60.84
32638;BME280;19045;52.268;10.506;2023-05-01T00:57:27;101026.00;;;8.20;60.22
32638;BME280;19045;52.268;10.506;2023-05-01T00:59:55;101020.41;;;8.22;60.20
32638;BME280;19045;52.268;10.506;2023-05-01T01:02:23;101021.38;;;8.27;60.06
32638;BME280;19045;52.268;10.506;2023-05-01T01:04:52;101023.09;;;8.22;59.85
32638;BME280;19045;52.268;10.506;2023-05-01T01:07:26;101023.69;;;8.24;60.45
32638;BME280;19045;52.268;10.506;2023-05-01T01:10:04;101012.38;;;8.22;60.73
32638;BME280;19045;52.268;10.506;2023-05-01T01:12:45;101014.94;;;8.17;60.12
32638;BME280;19045;52.268;10.506;2023-05-01T01:15:22;101011.34;;;8.23;60.52
32638;BME280;19045;52.268;10.506;2023-05-01T01:17:54;101010.63;;;8.16;60.36
32638;BME280;19045;52.268;10.506;2023-05-01T01:20:34;101004.91;;;8.12;60.82
32638;BME280;19045;52.268;10.506;2023-05-01T01:23:29;101003.38;;;8.05;61.48
32638;BME280;19045;52.268;10.506;2023-05-01T01:26:32;100993.91;;;8.02;61.57
32638;BME280;19045;52.268;10.506;2023-05-01T01:29:25;100995.94;;;8.07;60.82
32638;BME280;19045;52.268;10.506;2023-05-01T01:32:10;101000.47;;;8.06;60.88
32638;BME280;19045;52.268;10.506;2023-05-01T01:34:43;100988.81;;;8.01;61.10
32638;BME280;19045;52.268;10.506;2023-05-01T01:37:16;100988.00;;;8.00;61.82
32638;BME280;19045;52.268;10.506;2023-05-01T01:39:51;100989.34;;;7.91;61.41
32638;BME280;19045;52.268;10.506;2023-05-01T01:42:21;100989.72;;;7.95;61.92
32638;BME280;19045;52.268;10.506;2023-05-01T01:44:54;100986.16;;;7.82;62.29
32638;BME280;19045;52.268;10.506;2023-05-01T01:47:26;100977.19;;;7.77;62.47
32638;BME280;19045;52.268;10.506;2023-05-01T01:50:00;100973.84;;;7.82;62.95
32638;BME280;19045;52.268;10.506;2023-05-01T01:52:29;100978.94;;;7.83;62.61
32638;BME280;19045;52.268;10.506;2023-05-01T01:55:01;100979.19;;;7.82;62.86
32638;BME280;19045;52.268;10.506;2023-05-01T01:57:31;100967.88;;;7.79;63.11
32638;BME280;19045;52.268;10.506;2023-05-01T02:00:01;100965.00;;;7.81;62.93
32638;BME280;19045;52.268;10.506;2023-05-01T02:02:34;100967.97;;;7.73;63.48
32638;BME280;19045;52.268;10.506;2023-05-01T02:05:04;100955.28;;;7.68;63.81
32638;BME280;19045;52.268;10.506;2023-05-01T02:07:33;100965.16;;;7.68;64.07
32638;BME280;19045;52.268;10.506;2023-05-01T02:10:03;100961.88;;;7.66;63.71
32638;BME280;19045;52.268;10.506;2023-05-01T02:12:30;100956.09;;;7.69;63.78
32638;BME280;19045;52.268;10.506;2023-05-01T02:14:59;100961.69;;;7.67;64.10
32638;BME280;19045;52.268;10.506;2023-05-01T02:17:27;100949.56;;;7.65;64.20
32638;BME280;19045;52.268;10.506;2023-05-01T02:19:55;100945.06;;;7.65;64.12
32638;BME280;19045;52.268;10.506;2023-05-01T02:22:25;100938.44;;;7.68;64.51
32638;BME280;19045;52.268;10.506;2023-05-01T02:24:53;100937.38;;;7.69;64.88
32638;BME280;19045;52.268;10.506;2023-05-01T02:27:27;100931.81;;;7.70;64.43
32638;BME280;19045;52.268;10.506;2023-05-01T02:29:56;100928.09;;;7.71;64.36
32638;BME280;19045;52.268;10.506;2023-05-01T02:32:24;100932.63;;;7.71;64.51
32638;BME280;19045;52.268;10.506;2023-05-01T02:34:50;100936.13;;;7.71;63.95
32638;BME280;19045;52.268;10.506;2023-05-01T02:37:17;100929.94;;;7.71;64.76
32638;BME280;19045;52.268;10.506;2023-05-01T02:39:45;100927.56;;;7.63;64.87
32638;BME280;19045;52.268;10.506;2023-05-01T02:42:14;100923.38;;;7.55;65.50
32638;BME280;19045;52.268;10.506;2023-05-01T02:44:46;100920.47;;;7.57;64.86
32638;BME280;19045;52.268;10.506;2023-05-01T02:47:17;100916.03;;;7.51;65.51
32638;BME280;19045;52.268;10.506;2023-05-01T02:49:45;100910.69;;;7.51;65.66
32638;BME280;19045;52.268;10.506;2023-05-01T02:52:13;100904.59;;;7.44;65.84
32638;BME280;19045;52.268;10.506;2023-05-01T02:54:42;100911.72;;;7.50;65.94
32638;BME280;19045;52.268;10.506;2023-05-01T02:57:11;100903.56;;;7.45;65.61
32638;BME280;19045;52.268;10.506;2023-05-01T02:59:38;100902.28;;;7.47;65.50
32638;BME280;19045;52.268;10.506;2023-05-01T03:02:08;100891.09;;;7.39;66.33
32638;BME280;19045;52.268;10.506;2023-05-01T03:04:34;100889.47;;;7.38;66.26
32638;BME280;19045;52.268;10.506;2023-05-01T03:07:01;100881.44;;;7.38;66.04
32638;BME280;19045;52.268;10.506;2023-05-01T03:09:29;100877.88;;;7.44;66.29
32638;BME280;19045;52.268;10.506;2023-05-01T03:11:56;100876.91;;;7.38;66.97
32638;BME280;19045;52.268;10.506;2023-05-01T03:14:24;100877.88;;;7.44;66.26
32638;BME280;19045;52.268;10.506;2023-05-01T03:16:52;100871.03;;;7.29;66.91
32638;BME280;19045;52.268;10.506;2023-05-01T03:19:19;100869.19;;;7.30;67.04
32638;BME280;19045;52.268;10.506;2023-05-01T03:21:46;100867.50;;;7.36;67.16
32638;BME280;19045;52.268;10.506;2023-05-01T03:24:13;100871.66;;;7.32;66.87
32638;BME280;19045;52.268;10.506;2023-05-01T03:26:39;100869.56;;;7.34;66.57
32638;BME280;19045;52.268;10.506;2023-05-01T03:29:06;100865.84;;;7.35;67.19
32638;BME280;19045;52.268;10.506;2023-05-01T03:31:35;100863.63;;;7.32;67.00
32638;BME280;19045;52.268;10.506;2023-05-01T03:34:02;100860.50;;;7.35;67.15
32638;BME280;19045;52.268;10.506;2023-05-01T03:36:28;100849.22;;;7.33;67.37
32638;BME280;19045;52.268;10.506;2023-05-01T03:38:59;100846.78;;;7.31;67.18
32638;BME280;19045;52.268;10.506;2023-05-01T03:41:26;100853.41;;;7.28;66.67
32638;BME280;19045;52.268;10.506;2023-05-01T03:43:53;100852.34;;;7.29;66.90
32638;BME280;19045;52.268;10.506;2023-05-01T03:46:19;100847.59;;;7.32;66.93
32638;BME280;19045;52.268;10.506;2023-05-01T03:48:49;100849.22;;;7.33;66.65
32638;BME280;19045;52.268;10.506;2023-05-01T03:51:16;100850.28;;;7.32;66.95
32638;BME280;19045;52.268;10.506;2023-05-01T03:53:43;100844.41;;;7.23;67.18
32638;BME280;19045;52.268;10.506;2023-05-01T03:56:09;100838.63;;;7.26;67.06
32638;BME280;19045;52.268;10.506;2023-05-01T03:58:36;100839.78;;;7.30;66.65
32638;BME280;19045;52.268;10.506;2023-05-01T04:01:03;100832.75;;;7.36;66.27
32638;BME280;19045;52.268;10.506;2023-05-01T04:03:30;100834.47;;;7.30;66.38
32638;BME280;19045;52.268;10.506;2023-05-01T04:05:58;100832.03;;;7.28;66.10
32638;BME280;19045;52.268;10.506;2023-05-01T04:08:27;100832.31;;;7.20;67.05
32638;BME280;19045;52.268;10.506;2023-05-01T04:10:54;100830.09;;;7.17;67.28
32638;BME280;19045;52.268;10.506;2023-05-01T04:13:22;100828.81;;;7.20;66.92
32638;BME280;19045;52.268;10.506;2023-05-01T04:15:49;100827.13;;;7.25;66.30
32638;BME280;19045;52.268;10.506;2023-05-01T04:18:16;100823.41;;;7.26;66.18
32638;BME280;19045;52.268;10.506;2023-05-01T04:20:43;100820.81;;;7.20;67.00
32638;BME280;19045;52.268;10.506;2023-05-01T04:23:12;100820.72;;;7.26;66.33
32638;BME280;19045;52.268;10.506;2023-05-01T04:25:38;100818.22;;;7.32;66.40
32638;BME280;19045;52.268;10.506;2023-05-01T04:28:05;100810.91;;;7.39;66.18
32638;BME280;19045;52.268;10.506;2023-05-01T04:30:32;100809.31;;;7.49;65.46
32638;BME280;19045;52.268;10.506;2023-05-01T04:32:59;100813.31;;;7.58;65.13
32638;BME280;19045;52.268;10.506;2023-05-01T04:35:27;100806.91;;;7.59;65.38
32638;BME280;19045;52.268;10.506;2023-05-01T04:37:54;100814.25;;;7.64;65.29
32638;BME280;19045;52.268;10.506;2023-05-01T04:40:24;100805.91;;;7.72;64.57
32638;BME280;19045;52.268;10.506;2023-05-01T04:42:50;100794.50;;;7.76;63.97
32638;BME280;19045;52.268;10.506;2023-05-01T04:45:17;100790.69;;;7.84;64.53
32638;BME280;19045;52.268;10.506;2023-05-01T04:47:44;100797.94;;;7.95;63.71
32638;BME280;19045;52.268;10.506;2023-05-01T04:50:10;100793.06;;;8.04;63.04
32638;BME280;19045;52.268;10.506;2023-05-01T04:52:37;100796.91;;;8.08;63.35
32638;BME280;19045;52.268;10.506;2023-05-01T04:55:05;100789.34;;;8.16;62.98
32638;BME280;19045;52.268;10.506;2023-05-01T04:57:33;100788.19;;;8.24;62.13
32638;BME280;19045;52.268;10.506;2023-05-01T05:00:00;100785.41;;;8.30;63.01
32638;BME280;19045;52.268;10.506;2023-05-01T05:02:27;100794.84;;;8.33;62.35
32638;BME280;19045;52.268;10.506;2023-05-01T05:04:54;100784.94;;;8.34;62.58
32638;BME280;19045;52.268;10.506;2023-05-01T05:07:21;100791.34;;;8.44;61.46
32638;BME280;19045;52.268;10.506;2023-05-01T05:09:47;100791.47;;;8.38;61.75
32638;BME280;19045;52.268;10.506;2023-05-01T05:12:14;100788.69;;;8.44;61.58
32638;BME280;19045;52.268;10.506;2023-05-01T05:14:43;100794.59;;;8.58;60.90
32638;BME280;19045;52.268;10.506;2023-05-01T05:17:09;100786.88;;;8.73;60.57
32638;BME280;19045;52.268;10.506;2023-05-01T05:19:36;100794.34;;;8.71;60.66
32638;BME280;19045;52.268;10.506;2023-05-01T05:22:03;100800.41;;;8.78;60.47
32638;BME280;19045;52.268;10.506;2023-05-01T05:24:30;100790.59;;;8.83;59.87
32638;BME280;19045;52.268;10.506;2023-05-01T05:26:56;100789.78;;;8.83;59.73
32638;BME280;19045;52.268;10.506;2023-05-01T05:29:23;100785.59;;;8.75;59.73
32638;BME280;19045;52.268;10.506;2023-05-01T05:31:51;100789.16;;;8.93;59.69
32638;BME280;19045;52.268;10.506;2023-05-01T05:34:18;100781.66;;;9.06;59.45
32638;BME280;19045;52.268;10.506;2023-05-01T05:36:45;100784.78;;;9.15;58.38
32638;BME280;19045;52.268;10.506;2023-05-01T05:39:11;100786.81;;;9.08;58.28
32638;BME280;19045;52.268;10.506;2023-05-01T05:41:38;100784.00;;;9.14;57.46
32638;BME280;19045;52.268;10.506;2023-05-01T05:44:09;100784.22;;;9.13;56.92
32638;BME280;19045;52.268;10.506;2023-05-01T05:46:35;100779.47;;;9.31;56.64
32638;BME280;19045;52.268;10.506;2023-05-01T05:49:04;100775.19;;;9.30;56.84
32638;BME280;19045;52.268;10.506;2023-05-01T05:51:33;100777.63;;;9.49;56.34
32638;BME280;19045;52.268;10.506;2023-05-01T05:54:00;100770.19;;;9.51;55.59
32638;BME280;19045;52.268;10.506;2023-05-01T05:56:26;100778.91;;;9.58;55.26
32638;BME280;19045;52.268;10.506;2023-05-01T05:58:53;100766.69;;;9.50;54.99
32638;BME280;19045;52.268;10.506;2023-05-01T06:01:20;100774.00;;;9.55;55.51
32638;BME280;19045;52.268;10.506;2023-05-01T06:03:46;100773.03;;;9.61;55.05
32638;BME280;19045;52.268;10.506;2023-05-01T06:06:15;100770.38;;;9.77;54.22
32638;BME280;19045;52.268;10.506;2023-05-01T06:08:41;100770.78;;;9.86;53.76
32638;BME280;19045;52.268;10.506;2023-05-01T06:11:10;100765.34;;;10.14;53.10
32638;BME280;19045;52.268;10.506;2023-05-01T06:13:37;100769.31;;;10.28;52.61
32638;BME280;19045;52.268;10.506;2023-05-01T06:16:05;100764.91;;;10.61;51.22
32638;BME280;19045;52.268;10.506;2023-05-01T06:18:32;100761.38;;;10.99;50.05
32638;BME280;19045;52.268;10.506;2023-05-01T06:20:59;100755.94;;;11.42;49.71
32638;BME280;19045;52.268;10.506;2023-05-01T06:23:27;100752.25;;;11.80;48.68
32638;BME280;19045;52.268;10.506;2023-05-01T06:25:54;100750.94;;;11.82;48.13
32638;BME280;19045;52.268;10.506;2023-05-01T06:28:21;100751.63;;;12.05;47.47
32638;BME280;19045;52.268;10.506;2023-05-01T06:30:48;100753.81;;;12.08;48.00
32638;BME280;19045;52.268;10.506;2023-05-01T06:33:14;100747.69;;;12.17;47.79
32638;BME280;19045;52.268;10.506;2023-05-01T06:35:41;100749.38;;;12.33;46.88
32638;BME280;19045;52.268;10.506;2023-05-01T06:38:07;100747.22;;;12.30;47.14
32638;BME280;19045;52.268;10.506;2023-05-01T06:40:35;100746.28;;;12.52;46.06
32638;BME280;19045;52.268;10.506;2023-05-01T06:43:02;100740.84;;;12.47;46.27
32638;BME280;19045;52.268;10.506;2023-05-01T06:45:29;100736.88;;;12.59;45.19
32638;BME280;19045;52.268;10.506;2023-05-01T06:47:56;100741.84;;;12.82;44.86
32638;BME280;19045;52.268;10.506;2023-05-01T06:50:24;100741.03;;;12.82;45.10
32638;BME280;19045;52.268;10.506;2023-05-01T06:52:56;100733.31;;;13.11;44.31
32638;BME280;19045;52.268;10.506;2023-05-01T06:55:24;100737.88;;;13.05;44.25
32638;BME280;19045;52.268;10.506;2023-05-01T06:57:52;100737.69;;;13.37;44.03
32638;BME280;19045;52.268;10.506;2023-05-01T07:00:19;100724.47;;;13.76;43.65
32638;BME280;19045;52.268;10.506;2023-05-01T07:02:45;100732.31;;;13.97;43.19
32638;BME280;19045;52.268;10.506;2023-05-01T07:05:12;100736.06;;;13.46;43.89
32638;BME280;19045;52.268;10.506;2023-05-01T07:07:39;100740.16;;;13.64;43.69
32638;BME280;19045;52.268;10.506;2023-05-01T07:10:06;100735.81;;;13.93;42.99
32638;BME280;19045;52.268;10.506;2023-05-01T07:12:33;100727.13;;;14.31;42.29
32638;BME280;19045;52.268;10.506;2023-05-01T07:15:02;100726.75;;;14.68;42.37
32638;BME280;19045;52.268;10.506;2023-05-01T07:17:29;100730.91;;;14.35;42.66
32638;BME280;19045;52.268;10.506;2023-05-01T07:19:56;100716.31;;;14.31;42.98
32638;BME280;19045;52.268;10.506;2023-05-01T07:22:23;100726.06;;;14.12;43.40
32638;BME280;19045;52.268;10.506;2023-05-01T07:24:50;100728.78;;;13.97;43.80
32638;BME280;19045;52.268;10.506;2023-05-01T07:27:20;100717.97;;;14.07;44.06
32638;BME280;19045;52.268;10.506;2023-05-01T07:29:46;100708.19;;;14.26;43.78
32638;BME280;19045;52.268;10.506;2023-05-01T07:32:14;100710.13;;;14.06;44.73
32638;BME280;19045;52.268;10.506;2023-05-01T07:34:41;100704.47;;;14.02;44.56
32638;BME280;19045;52.268;10.506;2023-05-01T07:37:08;100701.97;;;14.26;44.12
32638;BME280;19045;52.268;10.506;2023-05-01T07:39:35;100711.69;;;14.47;43.76
32638;BME280;19045;52.268;10.506;2023-05-01T07:42:05;100711.41;;;14.48;43.33
32638;BME280;19045;52.268;10.506;2023-05-01T07:44:32;100708.72;;;14.38;43.23
32638;BME280;19045;52.268;10.506;2023-05-01T07:47:01;100700.69;;;14.08;44.11
32638;BME280;19045;52.268;10.506;2023-05-01T07:49:34;100698.81;;;13.93;44.75
32638;BME280;19045;52.268;10.506;2023-05-01T07:52:01;100698.53;;;14.05;45.01
32638;BME280;19045;52.268;10.506;2023-05-01T07:54:28;100694.16;;;14.24;43.84
32638;BME280;19045;52.268;10.506;2023-05-01T07:56:55;100693.84;;;14.51;44.00
32638;BME280;19045;52.268;10.506;2023-05-01T07:59:22;100693.25;;;14.64;43.18
32638;BME280;19045;52.268;10.506;2023-05-01T08:01:48;100682.50;;;14.98;42.45
32638;BME280;19045;52.268;10.506;2023-05-01T08:04:15;100684.09;;;15.43;42.06
32638;BME280;19045;52.268;10.506;2023-05-01T08:06:44;100682.81;;;15.69;41.23
32638;BME280;19045;52.268;10.506;2023-05-01T08:09:11;100678.69;;;16.29;40.89
32638;BME280;19045;52.268;10.506;2023-05-01T08:11:37;100675.91;;;17.00;39.76
32638;BME280;19045;52.268;10.506;2023-05-01T08:14:12;100680.94;;;17.63;38.25
32638;BME280;19045;52.268;10.506;2023-05-01T08:16:41;100679.28;;;17.81;37.89
32638;BME280;19045;52.268;10.506;2023-05-01T08:19:08;100672.81;;;17.77;37.71
32638;BME280;19045;52.268;10.506;2023-05-01T08:21:35;100672.47;;;18.11;36.90
32638;BME280;19045;52.268;10.506;2023-05-01T08:24:03;100666.47;;;17.49;37.84
32638;BME280;19045;52.268;10.506;2023-05-01T08:26:34;100669.66;;;17.37;38.05
32638;BME280;19045;52.268;10.506;2023-05-01T08:29:04;100662.19;;;17.29;38.02
32638;BME280;19045;52.268;10.506;2023-05-01T08:31:31;100664.16;;;17.24;38.16
32638;BME280;19045;52.268;10.506;2023-05-01T08:34:00;100663.78;;;17.30;38.09
32638;BME280;19045;52.268;10.506;2023-05-01T08:36:27;100669.09;;;17.03;38.28
32638;BME280;19045;52.268;10.506;2023-05-01T08:38:54;100662.56;;;16.67;39.33
32638;BME280;19045;52.268;10.506;2023-05-01T08:41:24;100660.06;;;17.08;38.69
32638;BME280;19045;52.268;10.506;2023-05-01T08:43:52;100662.13;;;17.16;38.26
32638;BME280;19045;52.268;10.506;2023-05-01T08:46:24;100665.06;;;17.19;38.83
32638;BME280;19045;52.268;10.506;2023-05-01T08:48:57;100662.94;;;17.16;38.96
32638;BME280;19045;52.268;10.506;2023-05-01T08:51:24;100659.84;;;17.23;39.18
32638;BME280;19045;52.268;10.506;2023-05-01T08:53:51;100670.41;;;17.24;39.34
32638;BME280;19045;52.268;10.506;2023-05-01T08:56:20;100662.19;;;17.29;39.52
32638;BME280;19045;52.268;10.506;2023-05-01T08:58:49;100660.13;;;17.21;39.39
32638;BME280;19045;52.268;10.506;2023-05-01T09:01:17;100654.94;;;17.89;38.88
32638;BME280;19045;52.268;10.506;2023-05-01T09:03:45;100655.72;;;17.90;38.71
32638;BME280;19045;52.268;10.506;2023-05-01T09:06:16;100645.47;;;18.41;38.41
32638;BME280;19045;52.268;10.506;2023-05-01T09:08:43;100651.84;;;18.50;38.73
32638;BME280;19045;52.268;10.506;2023-05-01T09:11:10;100645.06;;;19.55;37.19
32638;BME280;19045;52.268;10.506;2023-05-01T09:13:37;100634.47;;;20.63;35.36
32638;BME280;19045;52.268;10.506;2023-05-01T09:16:07;100633.69;;;20.89;34.77
32638;BME280;19045;52.268;10.506;2023-05-01T09:18:34;100635.78;;;20.92;34.29
32638;BME280;19045;52.268;10.506;2023-05-01T09:21:01;100626.72;;;20.48;34.88
32638;BME280;19045;52.268;10.506;2023-05-01T09:23:29;100618.94;;;20.81;34.84
32638;BME280;19045;52.268;10.506;2023-05-01T09:26:15;100621.66;;;21.07;34.50
32638;BME280;19045;52.268;10.506;2023-05-01T09:28:43;100623.09;;;22.02;32.89
32638;BME280;19045;52.268;10.506;2023-05-01T09:31:23;100617.25;;;22.71;32.19
32638;BME280;19045;52.268;10.506;2023-05-01T09:33:54;100611.13;;;23.48;31.24
32638;BME280;19045;52.268;10.506;2023-05-01T09:36:24;100620.34;;;23.89;30.25
32638;BME280;19045;52.268;10.506;2023-05-01T09:38:51;100601.03;;;23.97;30.53
32638;BME280;19045;52.268;10.506;2023-05-01T09:41:19;100605.19;;;24.15;29.95
32638;BME280;19045;52.268;10.506;2023-05-01T09:43:50;100607.50;;;23.56;30.88
32638;BME280;19045;52.268;10.506;2023-05-01T09:46:17;100604.06;;;22.64;31.88
32638;BME280;19045;52.268;10.506;2023-05-01T09:48:56;100609.31;;;23.32;31.49
32638;BME280;19045;52.268;10.506;2023-05-01T09:51:25;100601.50;;;23.42;31.12
32638;BME280;19045;52.268;10.506;2023-05-01T09:53:54;100602.22;;;22.77;31.79
32638;BME280;19045;52.268;10.506;2023-05-01T09:56:26;100595.75;;;22.32;32.67
32638;BME280;19045;52.268;10.506;2023-05-01T09:58:54;100591.78;;;22.50;32.63
32638;BME280;19045;52.268;10.506;2023-05-01T10:01:37;100593.09;;;22.64;32.20
32638;BME280;19045;52.268;10.506;2023-05-01T10:04:06;100596.19;;;22.63;32.51
32638;BME280;19045;52.268;10.506;2023-05-01T10:06:33;100581.38;;;22.85;31.83
32638;BME280;19045;52.268;10.506;2023-05-01T10:09:01;100583.63;;;22.62;32.24
32638;BME280;19045;52.268;10.506;2023-05-01T10:11:28;100590.19;;;22.90;31.92
32638;BME280;19045;52.268;10.506;2023-05-01T10:14:05;100581.63;;;23.45;31.69
32638;BME280;19045;52.268;10.506;2023-05-01T10:16:34;100572.31;;;24.07;30.60
32638;BME280;19045;52.268;10.506;2023-05-01T10:19:02;100576.00;;;24.23;30.47
32638;BME280;19045;52.268;10.506;2023-05-01T10:21:31;100576.28;;;24.82;29.69
32638;BME280;19045;52.268;10.506;2023-05-01T10:24:00;100576.34;;;25.13;29.63
32638;BME280;19045;52.268;10.506;2023-05-01T10:26:28;100573.16;;;25.11;29.45
32638;BME280;19045;52.268;10.506;2023-05-01T10:28:55;100565.91;;;24.91;29.95
32638;BME280;19045;52.268;10.506;2023-05-01T10:31:24;100568.69;;;24.39;29.94
32638;BME280;19045;52.268;10.506;2023-05-01T10:33:52;100558.25;;;23.72;30.87
32638;BME280;19045;52.268;10.506;2023-05-01T10:36:21;100558.34;;;23.18;31.90
32638;BME280;19045;52.268;10.506;2023-05-01T10:38:52;100550.34;;;23.58;31.19
32638;BME280;19045;52.268;10.506;2023-05-01T10:44:20;100540.91;;;24.56;30.76
32638;BME280;19045;52.268;10.506;2023-05-01T10:46:47;100540.75;;;24.37;30.54
32638;BME280;19045;52.268;10.506;2023-05-01T10:49:14;100535.84;;;23.82;30.83
32638;BME280;19045;52.268;10.506;2023-05-01T10:51:58;100537.81;;;23.70;31.46
32638;BME280;19045;52.268;10.506;2023-05-01T10:54:27;100531.28;;;23.98;31.07
32638;BME280;19045;52.268;10.506;2023-05-01T10:56:56;100530.94;;;24.24;31.01
32638;BME280;19045;52.268;10.506;2023-05-01T10:59:24;100525.44;;;24.00;30.89
32638;BME280;19045;52.268;10.506;2023-05-01T11:01:51;100518.34;;;23.62;31.82
32638;BME280;19045;52.268;10.506;2023-05-01T11:04:47;100512.88;;;23.75;31.59
32638;BME280;19045;52.268;10.506;2023-05-01T11:07:16;100516.06;;;23.77;31.10
32638;BME280;19045;52.268;10.506;2023-05-01T11:09:46;100519.34;;;23.01;32.41
32638;BME280;19045;52.268;10.506;2023-05-01T11:12:14;100518.78;;;23.07;32.12
32638;BME280;19045;52.268;10.506;2023-05-01T11:15:01;100512.78;;;22.40;33.51
32638;BME280;19045;52.268;10.506;2023-05-01T11:17:44;100515.84;;;23.12;32.77
32638;BME280;19045;52.268;10.506;2023-05-01T11:20:12;100504.56;;;23.26;32.51
32638;BME280;19045;52.268;10.506;2023-05-01T11:22:58;100508.28;;;22.56;33.19
32638;BME280;19045;52.268;10.506;2023-05-01T11:25:28;100494.50;;;23.18;33.01
32638;BME280;19045;52.268;10.506;2023-05-01T11:28:00;100492.00;;;23.37;32.14
32638;BME280;19045;52.268;10.506;2023-05-01T11:30:35;100491.25;;;23.97;32.17
32638;BME280;19045;52.268;10.506;2023-05-01T11:33:02;100484.63;;;23.74;31.51
32638;BME280;19045;52.268;10.506;2023-05-01T11:35:30;100482.31;;;23.40;32.40
32638;BME280;19045;52.268;10.506;2023-05-01T11:37:57;100484.19;;;23.15;32.80
32638;BME280;19045;52.268;10.506;2023-05-01T11:40:27;100476.75;;;22.71;32.36
32638;BME280;19045;52.268;10.506;2023-05-01T11:42:59;100482.25;;;22.29;32.78
32638;BME280;19045;52.268;10.506;2023-05-01T11:45:26;100469.06;;;23.30;32.33
32638;BME280;19045;52.268;10.506;2023-05-01T11:47:53;100470.34;;;23.44;31.66
32638;BME280;19045;52.268;10.506;2023-05-01T11:50:19;100470.19;;;23.16;31.88
32638;BME280;19045;52.268;10.506;2023-05-01T11:52:49;100469.41;;;22.21;32.67
32638;BME280;19045;52.268;10.506;2023-05-01T11:55:18;100462.91;;;23.57;31.09
32638;BME280;19045;52.268;10.506;2023-05-01T11:57:47;100468.09;;;22.69;32.31
32638;BME280;19045;52.268;10.506;2023-05-01T12:00:15;100460.31;;;23.03;31.99
32638;BME280;19045;52.268;10.506;2023-05-01T12:02:54;100454.50;;;22.51;32.74
32638;BME280;19045;52.268;10.506;2023-05-01T12:05:23;100454.91;;;22.21;33.38
32638;BME280;19045;52.268;10.506;2023-05-01T12:07:50;100451.44;;;23.31;32.63
32638;BME280;19045;52.268;10.506;2023-05-01T12:10:17;100440.81;;;24.02;31.87
32638;BME280;19045;52.268;10.506;2023-05-01T12:12:44;100448.16;;;23.74;31.84
32638;BME280;19045;52.268;10.506;2023-05-01T12:15:12;100448.94;;;23.98;32.25
32638;BME280;19045;52.268;10.506;2023-05-01T12:17:39;100453.72;;;24.26;31.42
32638;BME280;19045;52.268;10.506;2023-05-01T12:20:07;100451.09;;;22.54;32.67
32638;BME280;19045;52.268;10.506;2023-05-01T12:22:34;100445.78;;;21.37;34.10
32638;BME280;19045;52.268;10.506;2023-05-01T12:25:01;100456.13;;;21.06;35.37
32638;BME280;19045;52.268;10.506;2023-05-01T12:27:28;100445.06;;;21.02;36.11
32638;BME280;19045;52.268;10.506;2023-05-01T12:29:57;100446.91;;;20.55;37.55
32638;BME280;19045;52.268;10.506;2023-05-01T12:32:30;100450.34;;;21.54;36.41
32638;BME280;19045;52.268;10.506;2023-05-01T12:34:57;100439.88;;;22.47;34.63
32638;BME280;19045;52.268;10.506;2023-05-01T12:37:29;100439.66;;;22.40;33.98
32638;BME280;19045;52.268;10.506;2023-05-01T12:39:57;100438.50;;;21.41;34.67
32638;BME280;19045;52.268;10.506;2023-05-01T12:42:24;100433.00;;;21.50;35.10
32638;BME280;19045;52.268;10.506;2023-05-01T12:44:58;100434.78;;;21.46;35.48
32638;BME280;19045;52.268;10.506;2023-05-01T12:47:26;100431.75;;;21.39;35.22
32638;BME280;19045;52.268;10.506;2023-05-01T12:50:01;100436.06;;;21.02;35.34
32638;BME280;19045;52.268;10.506;2023-05-01T12:52:28;100426.44;;;21.42;34.98
32638;BME280;19045;52.268;10.506;2023-05-01T12:55:01;100422.59;;;21.43;34.18
32638;BME280;19045;52.268;10.506;2023-05-01T12:57:28;100418.22;;;22.22;34.02